createdAt,value
2018-10-11T00:00:21.966Z,12.20
2018-10-11T00:02:51.698Z,12.47
2018-10-11T00:05:22.397Z,13.03
2018-10-11T00:07:52.065Z,11.47
2018-10-11T00:10:21.708Z,12.30
2018-10-11T00:12:51.373Z,15.80
2018-10-11T00:15:21.616Z,13.30
2018-10-11T00:17:51.279Z,12.43
2018-10-11T00:20:21.643Z,11.93
2018-10-11T00:22:51.300Z,12.87
2018-10-11T00:25:21.193Z,12.57
2018-10-11T00:27:50.945Z,12.67
2018-10-11T00:30:21.101Z,13.07
2018-10-11T00:32:52.116Z,12.27
2018-10-11T00:35:21.831Z,12.93
2018-10-11T00:37:51.526Z,18.20
2018-10-11T00:40:21.666Z,13.87
2018-10-11T00:42:51.369Z,14.57
2018-10-11T00:45:22.413Z,16.30
2018-10-11T00:47:52.597Z,13.87
2018-10-11T00:50:23.200Z,13.23
2018-10-11T00:52:52.948Z,12.90
2018-10-11T00:55:22.728Z,13.47
2018-10-11T00:57:53.397Z,12.33
2018-10-11T01:00:23.770Z,16.03
2018-10-11T01:02:53.456Z,20.03
2018-10-11T01:05:23.119Z,12.67
2018-10-11T01:07:53.261Z,12.63
2018-10-11T01:10:23.020Z,15.67
2018-10-11T01:12:52.745Z,14.43
2018-10-11T01:15:22.478Z,11.77
2018-10-11T01:17:52.189Z,15.83
2018-10-11T01:20:21.852Z,12.93
2018-10-11T01:22:51.570Z,13.30
2018-10-11T01:25:38.187Z,13.47
2018-10-11T01:28:08.074Z,12.67
2018-10-11T01:30:37.925Z,13.70
2018-10-11T01:33:07.600Z,15.00
2018-10-11T01:35:37.512Z,14.77
2018-10-11T01:38:08.210Z,15.10
2018-10-11T01:40:38.284Z,14.90
2018-10-11T01:43:07.962Z,12.83
2018-10-11T01:45:38.289Z,13.20
2018-10-11T01:48:10.018Z,14.40
2018-10-11T01:50:40.681Z,15.27
2018-10-11T01:53:10.372Z,14.77
2018-10-11T01:55:40.213Z,14.50
2018-10-11T01:58:10.184Z,16.07
2018-10-11T02:00:40.747Z,20.13
2018-10-11T02:03:10.433Z,12.83
2018-10-11T02:05:40.146Z,14.00
2018-10-11T02:08:10.303Z,17.60
2018-10-11T02:11:42.591Z,13.90
2018-10-11T02:14:12.414Z,13.03
2018-10-11T02:16:43.733Z,12.17
2018-10-11T02:19:13.460Z,17.07
2018-10-11T02:21:43.170Z,15.27
2018-10-11T02:24:13.234Z,18.43
2018-10-11T02:26:42.895Z,14.43
2018-10-11T02:29:12.628Z,14.70
2018-10-11T02:31:42.434Z,18.70
2018-10-11T02:34:12.146Z,16.07
2018-10-11T02:36:41.958Z,14.23
2018-10-11T02:39:12.505Z,14.13
2018-10-11T02:41:42.188Z,12.30
2018-10-11T02:44:11.876Z,14.80
2018-10-11T02:46:41.594Z,12.80
2018-10-11T02:49:11.262Z,13.20
2018-10-11T02:51:40.917Z,13.73
2018-10-11T02:54:10.616Z,13.90
2018-10-11T02:56:40.680Z,13.80
2018-10-11T02:59:21.198Z,13.97
2018-10-11T03:01:50.981Z,13.50
2018-10-11T03:04:20.672Z,15.83
2018-10-11T03:06:51.414Z,13.00
2018-10-11T03:09:21.090Z,14.27
2018-10-11T03:11:51.240Z,12.50
2018-10-11T03:14:21.043Z,20.83
2018-10-11T03:16:50.892Z,14.70
2018-10-11T03:19:20.590Z,13.23
2018-10-11T03:21:50.390Z,13.07
2018-10-11T03:24:20.154Z,15.07
2018-10-11T03:26:50.198Z,13.90
2018-10-11T03:29:19.866Z,12.57
2018-10-11T03:31:49.547Z,15.93
2018-10-11T03:34:19.617Z,15.13
2018-10-11T03:36:49.429Z,11.80
2018-10-11T03:39:19.117Z,13.67
2018-10-11T03:41:53.142Z,13.93
2018-10-11T03:44:23.017Z,11.43
2018-10-11T03:46:53.548Z,12.50
2018-10-11T03:49:24.817Z,10.70
2018-10-11T03:51:54.517Z,13.07
2018-10-11T03:54:24.146Z,12.67
2018-10-11T03:56:54.174Z,14.73
2018-10-11T03:59:23.976Z,15.57
2018-10-11T04:01:54.257Z,16.47
2018-10-11T04:04:24.962Z,12.87
2018-10-11T04:06:54.858Z,13.50
2018-10-11T04:09:24.585Z,11.57
2018-10-11T04:11:55.625Z,15.63
2018-10-11T04:14:25.298Z,14.40
2018-10-11T04:16:54.988Z,12.53
2018-10-11T04:19:24.705Z,12.60
2018-10-11T04:21:54.420Z,17.00
2018-10-11T04:24:24.242Z,13.17
2018-10-11T04:26:54.252Z,12.47
2018-10-11T04:29:24.065Z,13.77
2018-10-11T04:31:53.694Z,13.37
2018-10-11T04:34:23.751Z,12.47
2018-10-11T04:36:53.458Z,13.63
2018-10-11T04:39:23.097Z,11.97
2018-10-11T04:41:52.754Z,15.80
2018-10-11T04:44:22.974Z,13.87
2018-10-11T04:46:52.693Z,12.77
2018-10-11T04:49:23.201Z,9.97
2018-10-11T04:51:52.975Z,10.20
2018-10-11T04:54:22.667Z,12.50
2018-10-11T04:56:52.444Z,10.03
2018-10-11T04:59:22.702Z,12.27
2018-10-11T05:01:53.429Z,12.83
2018-10-11T05:04:23.160Z,10.93
2018-10-11T05:06:54.106Z,11.90
2018-10-11T05:09:26.601Z,12.80
2018-10-11T05:11:56.285Z,10.53
2018-10-11T05:14:27.561Z,12.73
2018-10-11T05:16:57.249Z,12.27
2018-10-11T05:19:28.568Z,9.27
2018-10-11T05:21:58.371Z,11.57
2018-10-11T05:24:28.121Z,11.33
2018-10-11T05:26:57.805Z,9.63
2018-10-11T05:29:28.079Z,11.00
2018-10-11T05:31:58.422Z,9.40
2018-10-11T05:34:28.846Z,12.60
2018-10-11T05:36:58.801Z,10.87
2018-10-11T05:39:29.022Z,12.20
2018-10-11T05:41:59.371Z,18.37
2018-10-11T05:44:29.485Z,12.07
2018-10-11T05:47:00.125Z,13.70
2018-10-11T05:49:36.685Z,12.47
2018-10-11T05:52:06.605Z,12.10
2018-10-11T05:54:36.695Z,13.73
2018-10-11T05:57:06.423Z,15.83
2018-10-11T05:59:36.205Z,12.80
2018-10-11T06:02:06.101Z,9.87
2018-10-11T06:04:38.185Z,12.60
2018-10-11T06:07:07.936Z,11.33
2018-10-11T06:09:37.630Z,17.83
2018-10-11T06:12:07.951Z,9.30
2018-10-11T06:14:37.727Z,11.80
2018-10-11T06:17:08.044Z,10.83
2018-10-11T06:19:40.334Z,12.60
2018-10-11T06:22:10.863Z,11.53
2018-10-11T06:24:41.532Z,11.90
2018-10-11T06:27:12.629Z,11.37
2018-10-11T06:29:42.425Z,9.13
2018-10-11T06:32:13.048Z,10.23
2018-10-11T06:34:42.757Z,8.10
2018-10-11T06:37:14.585Z,9.13
2018-10-11T06:39:45.271Z,10.43
2018-10-11T06:42:16.765Z,10.40
2018-10-11T06:44:46.528Z,8.43
2018-10-11T06:47:18.621Z,8.17
2018-10-11T06:49:52.600Z,8.07
2018-10-11T06:52:22.340Z,9.47
2018-10-11T06:54:52.506Z,8.90
2018-10-11T06:57:22.288Z,12.33
2018-10-11T06:59:53.093Z,8.93
2018-10-11T07:02:23.386Z,8.97
2018-10-11T07:04:54.530Z,11.73
2018-10-11T07:07:24.340Z,7.80
2018-10-11T07:09:56.628Z,10.23
2018-10-11T07:12:27.241Z,8.17
2018-10-11T07:15:00.103Z,11.13
2018-10-11T07:17:29.899Z,12.73
2018-10-11T07:20:00.345Z,8.57
2018-10-11T07:26:02.223Z,7.37
2018-10-11T07:28:33.247Z,9.73
2018-10-11T07:31:03.067Z,7.37
2018-10-11T07:33:32.731Z,9.77
2018-10-11T07:36:12.251Z,7.67
2018-10-11T07:38:42.594Z,7.73
2018-10-11T07:41:15.140Z,11.80
2018-10-11T07:43:44.825Z,10.47
2018-10-11T07:46:19.822Z,8.77
2018-10-11T07:48:50.005Z,7.50
2018-10-11T07:51:19.666Z,8.93
2018-10-11T07:53:50.428Z,7.40
2018-10-11T07:56:20.561Z,8.43
2018-10-11T07:58:51.787Z,7.10
2018-10-11T08:01:21.491Z,8.47
2018-10-11T08:03:52.903Z,8.90
2018-10-11T08:06:22.651Z,7.60
2018-10-11T08:08:53.937Z,7.40
2018-10-11T08:11:25.288Z,7.37
2018-10-11T08:14:27.121Z,11.20
2018-10-11T08:16:59.449Z,6.83
2018-10-11T08:19:29.639Z,8.77
2018-10-11T08:21:59.044Z,7.50
2018-10-11T08:24:29.455Z,8.57
2018-10-11T08:26:59.274Z,11.37
2018-10-11T08:29:29.185Z,6.87
2018-10-11T08:31:59.237Z,7.93
2018-10-11T08:34:31.374Z,7.10
2018-10-11T08:37:01.845Z,6.97
2018-10-11T08:39:32.527Z,10.57
2018-10-11T08:42:02.224Z,6.90
2018-10-11T08:44:33.081Z,8.23
2018-10-11T08:47:05.420Z,10.03
2018-10-11T08:49:35.085Z,9.23
2018-10-11T08:52:05.336Z,7.03
2018-10-11T08:54:39.798Z,8.00
2018-10-11T08:57:12.159Z,7.30
2018-10-11T08:59:42.877Z,10.23
2018-10-11T09:02:12.549Z,7.40
2018-10-11T09:04:42.207Z,8.77
2018-10-11T09:07:11.948Z,8.03
2018-10-11T09:09:53.438Z,9.47
2018-10-11T09:12:19.169Z,7.90
2018-10-11T09:14:49.382Z,10.33
2018-10-11T09:17:20.885Z,9.53
2018-10-11T09:19:50.615Z,8.73
2018-10-11T09:22:21.249Z,8.00
2018-10-11T09:24:52.154Z,6.23
2018-10-11T09:27:22.194Z,10.13
2018-10-11T09:29:51.933Z,6.47
2018-10-11T09:32:21.623Z,7.50
2018-10-11T09:34:52.732Z,9.20
2018-10-11T09:37:22.415Z,6.63
2018-10-11T09:39:53.269Z,10.53
2018-10-11T09:42:23.606Z,6.43
2018-10-11T09:44:55.119Z,6.77
2018-10-11T09:47:25.418Z,7.87
2018-10-11T09:49:55.941Z,8.10
2018-10-11T09:52:25.722Z,8.63
2018-10-11T09:54:56.472Z,7.30
2018-10-11T09:57:38.341Z,10.23
2018-10-11T10:00:16.537Z,7.33
2018-10-11T10:02:49.003Z,6.83
2018-10-11T10:05:21.271Z,6.00
2018-10-11T10:07:52.878Z,8.27
2018-10-11T10:10:24.123Z,7.00
2018-10-11T10:12:56.194Z,7.50
2018-10-11T10:15:29.871Z,8.43
2018-10-11T10:18:00.520Z,7.07
2018-10-11T10:20:35.968Z,8.37
2018-10-11T10:23:09.776Z,11.80
2018-10-11T10:25:40.610Z,7.87
2018-10-11T10:28:13.185Z,7.17
2018-10-11T10:30:55.698Z,8.07
2018-10-11T10:33:27.051Z,7.83
2018-10-11T10:35:57.675Z,10.10
2018-10-11T10:38:29.029Z,6.90
2018-10-11T10:40:59.450Z,9.27
2018-10-11T10:43:30.094Z,7.47
2018-10-11T10:46:03.763Z,7.13
2018-10-11T10:48:34.271Z,7.03
2018-10-11T10:51:06.083Z,6.23
2018-10-11T10:53:36.389Z,7.33
2018-10-11T10:56:06.724Z,5.87
2018-10-11T10:58:39.576Z,6.77
2018-10-11T11:01:10.142Z,6.97
2018-10-11T11:03:40.686Z,8.47
2018-10-11T11:06:14.347Z,6.23
2018-10-11T11:08:49.616Z,11.53
2018-10-11T11:11:20.968Z,9.10
2018-10-11T11:13:52.391Z,6.13
2018-10-11T11:16:23.838Z,10.43
2018-10-11T11:18:54.356Z,11.77
2018-10-11T11:21:26.689Z,7.97
2018-10-11T11:23:58.052Z,7.43
2018-10-11T11:26:33.353Z,9.27
2018-10-11T11:29:03.985Z,8.30
2018-10-11T11:31:36.118Z,7.17
2018-10-11T11:34:07.673Z,8.00
2018-10-11T11:36:39.265Z,7.27
2018-10-11T11:39:11.124Z,6.33
2018-10-11T11:41:43.497Z,7.00
2018-10-11T11:44:21.496Z,8.37
2018-10-11T11:46:51.826Z,6.77
2018-10-11T11:49:22.921Z,7.47
2018-10-11T11:51:52.720Z,9.87
2018-10-11T11:54:23.543Z,10.13
2018-10-11T11:56:54.211Z,7.37
2018-10-11T11:59:26.597Z,7.00
2018-10-11T12:01:56.336Z,8.63
2018-10-11T12:05:28.873Z,7.67
2018-10-11T12:07:59.584Z,7.10
2018-10-11T12:10:31.462Z,7.70
2018-10-11T12:13:05.232Z,7.13
2018-10-11T12:15:36.368Z,12.43
2018-10-11T12:18:06.905Z,9.33
2018-10-11T12:20:39.928Z,6.50
2018-10-11T12:26:05.676Z,7.07
2018-10-11T12:28:37.499Z,7.40
2018-10-11T12:31:07.641Z,6.93
2018-10-11T12:33:38.272Z,7.37
2018-10-11T12:36:08.025Z,8.40
2018-10-11T12:38:38.165Z,10.83
2018-10-11T12:41:07.961Z,7.47
2018-10-11T12:43:39.172Z,8.03
2018-10-11T12:46:11.926Z,8.13
2018-10-11T12:48:42.068Z,11.23
2018-10-11T12:51:12.069Z,8.27
2018-10-11T12:53:45.093Z,9.13
2018-10-11T12:56:12.450Z,8.30
2018-10-11T12:58:43.885Z,8.10
2018-10-11T13:01:17.270Z,10.80
2018-10-11T13:03:46.121Z,10.17
2018-10-11T13:06:16.352Z,6.47
2018-10-11T13:08:46.593Z,8.03
2018-10-11T13:11:16.693Z,8.63
2018-10-11T13:13:49.040Z,7.47
2018-10-11T13:16:16.341Z,8.07
2018-10-11T13:18:46.842Z,7.50
2018-10-11T13:21:20.021Z,7.47
2018-10-11T13:23:52.662Z,12.50
2018-10-11T13:26:23.670Z,7.83
2018-10-11T13:28:54.288Z,7.57
2018-10-11T13:31:25.760Z,11.83
2018-10-11T13:33:58.055Z,8.17
2018-10-11T13:36:31.066Z,11.53
2018-10-11T13:39:01.525Z,8.23
2018-10-11T13:41:31.770Z,8.97
2018-10-11T13:44:01.386Z,8.20
2018-10-11T13:46:33.282Z,10.90
2018-10-11T13:49:05.194Z,8.80
2018-10-11T13:51:36.417Z,12.47
2018-10-11T13:54:07.068Z,9.40
2018-10-11T13:56:36.737Z,8.20
2018-10-11T13:59:13.265Z,7.27
2018-10-11T14:01:47.318Z,10.60
2018-10-11T14:04:17.757Z,10.67
2018-10-11T14:06:47.547Z,9.03
2018-10-11T14:09:19.213Z,8.30
2018-10-11T14:11:48.961Z,12.00
2018-10-11T14:14:19.107Z,12.50
2018-10-11T14:16:50.240Z,10.13
2018-10-11T14:19:20.731Z,11.20
2018-10-11T14:21:51.025Z,8.90
2018-10-11T14:24:22.877Z,8.40
2018-10-11T14:26:52.594Z,9.00
2018-10-11T14:29:24.439Z,12.17
2018-10-11T14:31:54.463Z,8.47
2018-10-11T14:34:25.239Z,8.70
2018-10-11T14:36:57.130Z,11.90
2018-10-11T14:39:29.416Z,9.60
2018-10-11T14:41:59.236Z,10.63
2018-10-11T14:44:29.786Z,7.97
2018-10-11T14:47:01.401Z,9.30
2018-10-11T14:49:31.196Z,10.03
2018-10-11T14:52:02.165Z,10.17
2018-10-11T14:54:34.630Z,10.40
2018-10-11T14:57:08.765Z,10.33
2018-10-11T14:59:38.571Z,10.87
2018-10-11T15:02:08.857Z,10.37
2018-10-11T15:04:41.573Z,9.63
2018-10-11T15:07:11.330Z,13.63
2018-10-11T15:09:41.607Z,11.83
2018-10-11T15:12:12.133Z,11.03
2018-10-11T15:14:42.572Z,10.73
2018-10-11T15:17:12.209Z,14.80
2018-10-11T15:19:42.898Z,14.13
2018-10-11T15:22:12.841Z,10.60
2018-10-11T15:24:46.593Z,14.97
2018-10-11T15:27:21.908Z,11.47
2018-10-11T15:29:53.053Z,15.00
2018-10-11T15:33:06.094Z,14.20
2018-10-11T15:38:42.748Z,11.23
2018-10-11T15:41:14.159Z,12.63
2018-10-11T15:43:44.283Z,18.10
2018-10-11T15:46:15.315Z,12.57
2018-10-11T15:48:45.273Z,13.00
2018-10-11T15:51:15.411Z,13.00
2018-10-11T15:53:55.118Z,10.13
2018-10-11T15:56:27.531Z,11.53
2018-10-11T15:58:57.506Z,14.73
2018-10-11T16:01:28.352Z,11.43
2018-10-11T16:04:09.335Z,17.13
2018-10-11T16:06:39.442Z,14.37
2018-10-11T16:09:12.074Z,12.93
2018-10-11T16:11:46.601Z,11.40
2018-10-11T16:14:19.883Z,12.47
2018-10-11T16:16:52.693Z,18.53
2018-10-11T16:19:24.358Z,12.30
2018-10-11T16:21:59.512Z,16.80
2018-10-11T16:24:32.249Z,13.87
2018-10-11T16:27:08.397Z,12.80
2018-10-11T16:29:38.518Z,10.70
2018-10-11T16:32:09.509Z,13.90
2018-10-11T16:34:39.817Z,12.30
2018-10-11T16:37:10.943Z,14.80
2018-10-11T16:39:41.654Z,11.87
2018-10-11T16:42:12.796Z,16.43
2018-10-11T16:44:44.340Z,12.33
2018-10-11T16:47:14.454Z,14.07
2018-10-11T16:49:45.833Z,11.37
2018-10-11T16:52:16.355Z,10.27
2018-10-11T16:54:49.849Z,12.47
2018-10-11T16:57:19.948Z,12.17
2018-10-11T16:59:52.424Z,16.87
2018-10-11T17:02:23.962Z,14.37
2018-10-11T17:04:56.531Z,11.97
2018-10-11T17:07:29.384Z,11.87
2018-10-11T17:10:00.849Z,11.27
2018-10-11T17:12:30.942Z,13.20
2018-10-11T17:15:02.874Z,11.00
2018-10-11T17:17:34.463Z,10.27
2018-10-11T17:20:12.325Z,14.20
2018-10-11T17:22:43.589Z,16.40
2018-10-11T17:25:19.460Z,12.80
2018-10-11T17:27:51.251Z,12.53
2018-10-11T17:30:28.012Z,13.03
2018-10-11T17:33:01.372Z,13.17
2018-10-11T17:35:32.457Z,11.00
2018-10-11T17:38:02.596Z,10.13
2018-10-11T17:40:33.683Z,12.93
2018-10-11T17:43:05.729Z,10.90
2018-10-11T17:45:39.275Z,11.80
2018-10-11T17:48:19.545Z,11.87
2018-10-11T17:50:51.521Z,13.87
2018-10-11T17:53:24.744Z,10.37
2018-10-11T17:55:59.273Z,11.03
2018-10-11T17:58:30.524Z,10.57
2018-10-11T18:01:04.222Z,10.77
2018-10-11T18:03:36.608Z,11.67
2018-10-11T18:06:47.746Z,12.00
2018-10-11T18:09:20.977Z,9.33
2018-10-11T18:11:52.729Z,15.63
2018-10-11T18:14:26.569Z,10.50
2018-10-11T18:16:57.437Z,10.70
2018-10-11T18:19:30.526Z,11.27
2018-10-11T18:22:02.457Z,11.23
2018-10-11T18:24:36.592Z,10.97
2018-10-11T18:27:09.545Z,13.33
2018-10-11T18:29:41.523Z,11.87
2018-10-11T18:32:13.292Z,15.93
2018-10-11T18:34:48.955Z,11.57
2018-10-11T18:37:20.013Z,12.40
2018-10-11T18:39:52.116Z,10.70
2018-10-11T18:42:22.328Z,10.23
2018-10-11T18:44:55.304Z,10.30
2018-10-11T18:47:26.263Z,15.57
2018-10-11T18:50:00.123Z,14.17
2018-10-11T18:52:31.738Z,13.20
2018-10-11T18:55:05.058Z,14.30
2018-10-11T18:57:37.637Z,11.70
2018-10-11T19:00:08.781Z,12.73
2018-10-11T19:02:41.993Z,12.20
2018-10-11T19:05:14.972Z,13.20
2018-10-11T19:07:48.947Z,11.10
2018-10-11T19:10:23.409Z,11.83
2018-10-11T19:12:55.153Z,10.63
2018-10-11T19:15:26.490Z,9.97
2018-10-11T19:18:00.252Z,11.20
2018-10-11T19:20:31.728Z,13.13
2018-10-11T19:23:01.954Z,16.50
2018-10-11T19:25:35.789Z,12.20
2018-10-11T19:28:09.245Z,13.17
2018-10-11T19:30:40.429Z,11.30
2018-10-11T19:33:10.598Z,11.70
2018-10-11T19:35:42.889Z,14.13
2018-10-11T19:38:13.656Z,10.53
2018-10-11T19:40:43.797Z,12.30
2018-10-11T19:43:13.958Z,13.67
2018-10-11T19:45:48.943Z,12.13
2018-10-11T19:48:19.134Z,14.57
2018-10-11T19:50:50.108Z,13.10
2018-10-11T19:53:21.281Z,12.17
2018-10-11T19:55:53.561Z,13.67
2018-10-11T19:58:28.594Z,12.27
2018-10-11T20:01:03.453Z,16.33
2018-10-11T20:03:41.298Z,12.00
2018-10-11T20:06:15.266Z,14.37
2018-10-11T20:11:25.751Z,16.30
2018-10-11T20:13:59.609Z,12.87
2018-10-11T20:16:29.764Z,17.50
2018-10-11T20:19:01.073Z,12.83
2018-10-11T20:21:32.496Z,12.97
2018-10-11T20:24:03.948Z,14.87
2018-10-11T20:26:39.921Z,17.53
2018-10-11T20:29:36.358Z,14.47
2018-10-11T20:32:08.127Z,11.97
2018-10-11T20:34:39.533Z,14.20
2018-10-11T20:37:14.524Z,13.73
2018-10-11T20:39:48.063Z,16.43
2018-10-11T20:42:21.523Z,13.77
2018-10-11T20:44:52.297Z,14.80
2018-10-11T20:47:24.188Z,15.67
2018-10-11T20:49:58.120Z,13.43
2018-10-11T20:55:13.883Z,12.83
2018-10-11T20:57:46.594Z,13.47
2018-10-11T21:00:21.922Z,18.07
2018-10-11T21:02:57.226Z,15.27
2018-10-11T21:05:30.359Z,14.23
2018-10-11T21:08:02.684Z,16.80
2018-10-11T21:10:35.286Z,13.43
2018-10-11T21:13:13.876Z,14.17
2018-10-11T21:15:45.580Z,18.07
2018-10-11T21:18:15.308Z,17.13
2018-10-11T21:20:48.442Z,13.70
2018-10-11T21:23:19.412Z,12.63
2018-10-11T21:25:49.143Z,11.97
2018-10-11T21:28:19.516Z,13.13
2018-10-11T21:30:50.501Z,15.40
2018-10-11T21:33:20.692Z,12.63
2018-10-11T21:35:50.321Z,12.63
2018-10-11T21:38:19.942Z,15.37
2018-10-11T21:40:51.100Z,12.27
2018-10-11T21:43:21.345Z,13.83
2018-10-11T21:45:52.643Z,12.23
2018-10-11T21:48:23.339Z,17.43
2018-10-11T21:50:54.331Z,12.63
2018-10-11T21:53:25.242Z,13.77
2018-10-11T21:55:56.188Z,15.90
2018-10-11T21:58:25.900Z,11.93
2018-10-11T22:01:00.512Z,13.07
2018-10-11T22:03:31.553Z,11.00
2018-10-11T22:06:02.479Z,11.60
2018-10-11T22:08:32.187Z,16.77
2018-10-11T22:11:04.308Z,14.17
2018-10-11T22:13:34.696Z,13.63
2018-10-11T22:16:04.664Z,16.23
2018-10-11T22:18:35.269Z,14.23
2018-10-11T22:21:04.925Z,13.30
2018-10-11T22:23:35.789Z,12.87
2018-10-11T22:26:05.624Z,13.70
2018-10-11T22:28:35.323Z,14.90
2018-10-11T22:31:05.739Z,14.17
2018-10-11T22:33:39.449Z,13.73
2018-10-11T22:36:09.183Z,14.63
2018-10-11T22:38:38.889Z,16.90
2018-10-11T22:41:10.867Z,13.63
2018-10-11T22:43:40.967Z,15.00
2018-10-11T22:46:11.892Z,19.63
2018-10-11T22:48:41.853Z,14.47
2018-10-11T22:51:12.097Z,15.17
2018-10-11T22:53:42.157Z,12.93
2018-10-11T22:56:20.514Z,11.10
2018-10-11T22:58:51.613Z,17.47
2018-10-11T23:01:22.652Z,14.00
2018-10-11T23:03:52.333Z,16.37
2018-10-11T23:06:24.806Z,13.67
2018-10-11T23:08:54.458Z,17.53
2018-10-11T23:11:25.254Z,16.47
2018-10-11T23:13:58.103Z,14.40
2018-10-11T23:16:29.141Z,12.73
2018-10-11T23:18:59.354Z,12.60
2018-10-11T23:21:30.650Z,17.67
2018-10-11T23:24:01.076Z,13.23
2018-10-11T23:26:31.365Z,14.10
2018-10-11T23:29:02.604Z,11.87
2018-10-11T23:31:33.069Z,14.87
2018-10-11T23:34:03.211Z,12.83
2018-10-11T23:36:32.850Z,14.90
2018-10-11T23:39:02.648Z,19.47
2018-10-11T23:41:34.324Z,15.73
2018-10-11T23:44:04.494Z,14.97
2018-10-11T23:46:34.201Z,14.87
2018-10-11T23:49:03.866Z,15.67
2018-10-11T23:51:33.554Z,11.63
2018-10-11T23:54:03.273Z,13.40
2018-10-11T23:56:32.993Z,11.87
2018-10-11T23:59:03.322Z,14.27
